createdAt,value
2019-01-10T00:01:17.196Z,3.00
2019-01-10T00:03:46.256Z,2.90
2019-01-10T00:06:15.721Z,2.80
2019-01-10T00:08:44.592Z,2.80
2019-01-10T00:11:14.349Z,2.70
2019-01-10T00:13:43.247Z,2.70
2019-01-10T00:16:12.208Z,2.60
2019-01-10T00:18:41.333Z,2.70
2019-01-10T00:21:11.253Z,2.80
2019-01-10T00:23:40.135Z,2.90
2019-01-10T00:26:09.077Z,2.80
2019-01-10T00:28:37.967Z,2.90
2019-01-10T00:31:07.009Z,2.80
2019-01-10T00:33:36.411Z,2.90
2019-01-10T00:36:05.695Z,2.90
2019-01-10T00:38:34.556Z,3.00
2019-01-10T00:41:03.611Z,2.80
2019-01-10T00:43:32.939Z,2.90
2019-01-10T00:46:01.991Z,2.90
2019-01-10T00:48:31.284Z,2.80
2019-01-10T00:51:00.398Z,2.80
2019-01-10T00:53:29.475Z,2.80
2019-01-10T00:55:58.573Z,2.80
2019-01-10T00:58:27.719Z,2.80
2019-01-10T01:00:56.859Z,2.80
2019-01-10T01:03:25.839Z,2.80
2019-01-10T01:05:54.947Z,2.90
2019-01-10T01:08:24.045Z,2.80
2019-01-10T01:10:53.018Z,2.80
2019-01-10T01:13:23.002Z,2.90
2019-01-10T01:15:52.248Z,2.90
2019-01-10T01:18:21.236Z,2.90
2019-01-10T01:20:50.540Z,3.00
2019-01-10T01:23:19.426Z,3.10
2019-01-10T01:25:48.520Z,3.00
2019-01-10T01:28:17.614Z,3.00
2019-01-10T01:30:46.912Z,3.00
2019-01-10T01:33:16.009Z,3.10
2019-01-10T01:35:45.616Z,3.00
2019-01-10T01:38:14.467Z,3.00
2019-01-10T01:40:43.383Z,3.10
2019-01-10T01:43:12.386Z,3.10
2019-01-10T01:45:41.787Z,3.00
2019-01-10T01:48:10.627Z,3.00
2019-01-10T01:50:39.823Z,3.00
2019-01-10T01:53:09.069Z,3.00
2019-01-10T01:55:37.963Z,3.00
2019-01-10T01:58:07.053Z,3.00
2019-01-10T02:00:36.762Z,3.00
2019-01-10T02:03:05.830Z,3.00
2019-01-10T02:05:35.002Z,2.90
2019-01-10T02:08:04.557Z,2.90
2019-01-10T02:10:33.538Z,2.90
2019-01-10T02:13:02.631Z,2.90
2019-01-10T02:15:36.119Z,2.90
2019-01-10T02:18:05.439Z,2.90
2019-01-10T02:20:34.534Z,3.00
2019-01-10T02:23:03.375Z,2.80
2019-01-10T02:25:32.621Z,2.80
2019-01-10T02:28:01.810Z,2.80
2019-01-10T02:30:30.811Z,2.90
2019-01-10T02:32:59.699Z,2.90
2019-01-10T02:35:28.795Z,2.90
2019-01-10T02:37:57.684Z,2.80
2019-01-10T02:40:27.492Z,2.80
2019-01-10T02:42:56.781Z,2.80
2019-01-10T02:45:25.631Z,2.90
2019-01-10T02:47:54.658Z,2.90
2019-01-10T02:50:24.383Z,2.90
2019-01-10T02:52:53.582Z,2.80
2019-01-10T02:55:22.560Z,2.80
2019-01-10T02:57:51.630Z,2.80
2019-01-10T03:00:24.740Z,2.80
2019-01-10T03:02:53.893Z,2.80
2019-01-10T03:05:24.186Z,2.80
2019-01-10T03:07:54.193Z,2.80
2019-01-10T03:10:24.997Z,2.80
2019-01-10T03:12:54.587Z,2.80
2019-01-10T03:15:23.463Z,2.80
2019-01-10T03:17:53.190Z,2.80
2019-01-10T03:20:23.400Z,2.80
2019-01-10T03:22:52.397Z,2.70
2019-01-10T03:25:21.859Z,2.70
2019-01-10T03:27:50.837Z,2.70
2019-01-10T03:30:20.480Z,2.80
2019-01-10T03:32:49.869Z,2.80
2019-01-10T03:35:18.727Z,2.80
2019-01-10T03:37:47.570Z,2.70
2019-01-10T03:40:19.871Z,2.70
2019-01-10T03:42:49.022Z,2.70
2019-01-10T03:45:19.647Z,2.70
2019-01-10T03:47:49.239Z,2.60
2019-01-10T03:50:18.520Z,2.70
2019-01-10T03:52:47.422Z,2.70
2019-01-10T03:55:16.814Z,2.70
2019-01-10T03:57:45.881Z,2.60
2019-01-10T04:00:17.553Z,2.50
2019-01-10T04:02:47.251Z,2.60
2019-01-10T04:05:16.270Z,2.50
2019-01-10T04:07:45.108Z,2.50
2019-01-10T04:10:15.856Z,2.60
2019-01-10T04:12:44.780Z,2.60
2019-01-10T04:15:15.366Z,2.60
2019-01-10T04:17:45.144Z,2.50
2019-01-10T04:20:16.806Z,2.50
2019-01-10T04:22:48.472Z,2.50
2019-01-10T04:25:17.837Z,2.40
2019-01-10T04:27:46.717Z,2.40
2019-01-10T04:30:18.170Z,2.30
2019-01-10T04:32:47.467Z,2.30
2019-01-10T04:35:16.312Z,2.40
2019-01-10T04:37:45.551Z,2.40
2019-01-10T04:40:17.005Z,2.40
2019-01-10T04:42:45.975Z,2.40
2019-01-10T04:45:15.599Z,2.40
2019-01-10T04:47:44.884Z,2.50
2019-01-10T04:50:15.180Z,2.60
2019-01-10T04:52:44.109Z,2.60
2019-01-10T04:55:13.510Z,2.60
2019-01-10T04:57:42.363Z,2.70
2019-01-10T05:00:19.983Z,2.60
2019-01-10T05:02:48.814Z,2.60
2019-01-10T05:05:17.673Z,2.50
2019-01-10T05:07:46.582Z,2.50
2019-01-10T05:10:15.425Z,2.40
2019-01-10T05:12:44.294Z,2.50
2019-01-10T05:15:15.450Z,2.60
2019-01-10T05:17:44.716Z,2.60
2019-01-10T05:20:16.299Z,2.70
2019-01-10T05:22:46.170Z,2.60
2019-01-10T05:25:15.129Z,2.60
2019-01-10T05:27:44.402Z,2.60
2019-01-10T05:30:18.878Z,2.40
2019-01-10T05:32:47.847Z,2.40
2019-01-10T05:35:16.814Z,2.40
2019-01-10T05:37:45.720Z,2.50
2019-01-10T05:40:14.670Z,2.50
2019-01-10T05:42:43.896Z,2.50
2019-01-10T05:45:15.492Z,2.50
2019-01-10T05:47:44.363Z,2.60
2019-01-10T05:50:17.624Z,2.60
2019-01-10T05:52:45.936Z,2.50
2019-01-10T05:55:17.843Z,2.50
2019-01-10T05:57:46.703Z,2.40
2019-01-10T06:00:24.540Z,2.40
2019-01-10T06:02:53.584Z,2.20
2019-01-10T06:05:22.973Z,2.20
2019-01-10T06:07:53.678Z,2.20
2019-01-10T06:10:26.888Z,2.20
2019-01-10T06:12:55.732Z,2.10
2019-01-10T06:15:24.998Z,2.20
2019-01-10T06:17:53.854Z,2.30
2019-01-10T06:20:23.904Z,2.30
2019-01-10T06:22:53.182Z,2.30
2019-01-10T06:25:23.128Z,2.30
2019-01-10T06:27:52.003Z,2.20
2019-01-10T06:30:23.043Z,2.20
2019-01-10T06:32:52.199Z,2.10
2019-01-10T06:35:21.085Z,2.00
2019-01-10T06:37:50.259Z,2.00
2019-01-10T06:40:20.610Z,1.90
2019-01-10T06:42:49.487Z,1.90
2019-01-10T06:45:19.405Z,1.80
2019-01-10T06:47:48.663Z,1.90
2019-01-10T06:50:18.123Z,1.90
2019-01-10T06:52:47.815Z,1.70
2019-01-10T06:55:16.692Z,1.80
2019-01-10T06:57:45.566Z,1.80
2019-01-10T07:00:20.255Z,1.80
2019-01-10T07:02:50.963Z,1.80
2019-01-10T07:05:20.081Z,1.80
2019-01-10T07:07:56.231Z,1.80
2019-01-10T07:10:22.464Z,1.70
2019-01-10T07:12:58.171Z,1.70
2019-01-10T07:15:27.366Z,1.60
2019-01-10T07:17:58.996Z,1.60
2019-01-10T07:20:28.268Z,1.60
2019-01-10T07:22:57.155Z,1.50
2019-01-10T07:25:26.040Z,1.50
2019-01-10T07:27:56.772Z,1.50
2019-01-10T07:30:35.456Z,1.50
2019-01-10T07:32:57.486Z,1.40
2019-01-10T07:35:26.823Z,1.40
2019-01-10T07:38:04.513Z,1.40
2019-01-10T07:40:36.755Z,1.30
2019-01-10T07:43:05.715Z,1.30
2019-01-10T07:45:34.567Z,1.40
2019-01-10T07:48:07.396Z,1.40
2019-01-10T07:50:36.550Z,1.40
2019-01-10T07:53:06.031Z,1.40
2019-01-10T07:55:36.427Z,1.40
2019-01-10T07:58:05.363Z,1.30
2019-01-10T08:00:34.199Z,1.20
2019-01-10T08:03:04.676Z,1.20
2019-01-10T08:05:35.329Z,1.10
2019-01-10T08:08:04.929Z,1.10
2019-01-10T08:10:34.931Z,1.30
2019-01-10T08:13:05.771Z,1.40
2019-01-10T08:15:36.672Z,1.50
2019-01-10T08:18:07.334Z,1.50
2019-01-10T08:20:36.210Z,1.50
2019-01-10T08:23:05.073Z,1.50
2019-01-10T08:25:34.571Z,1.60
2019-01-10T08:28:03.826Z,1.70
2019-01-10T08:30:32.916Z,1.90
2019-01-10T08:33:01.840Z,1.90
2019-01-10T08:35:30.896Z,2.00
2019-01-10T08:38:00.192Z,2.00
2019-01-10T08:40:29.590Z,1.90
2019-01-10T08:42:58.434Z,2.00
2019-01-10T08:45:27.517Z,2.10
2019-01-10T08:47:56.981Z,2.10
2019-01-10T08:50:26.315Z,2.20
2019-01-10T08:52:55.670Z,2.30
2019-01-10T08:55:25.277Z,2.30
2019-01-10T08:57:54.573Z,2.30
2019-01-10T09:00:23.654Z,2.30
2019-01-10T09:02:53.204Z,2.40
2019-01-10T09:05:22.606Z,2.50
2019-01-10T09:07:51.601Z,2.60
2019-01-10T09:10:23.874Z,2.70
2019-01-10T09:12:53.234Z,2.90
2019-01-10T09:15:33.898Z,3.20
2019-01-10T09:17:56.194Z,3.50
2019-01-10T09:20:25.520Z,3.50
2019-01-10T09:22:54.599Z,3.60
2019-01-10T09:25:24.016Z,3.80
2019-01-10T09:27:53.128Z,3.80
2019-01-10T09:30:22.669Z,3.80
2019-01-10T09:32:53.048Z,3.80
2019-01-10T09:35:22.322Z,3.80
2019-01-10T09:37:51.614Z,4.10
2019-01-10T09:40:22.551Z,4.30
2019-01-10T09:42:51.799Z,4.30
2019-01-10T09:45:22.696Z,4.40
2019-01-10T09:47:52.267Z,4.40
2019-01-10T09:50:30.346Z,4.40
2019-01-10T09:52:59.587Z,4.60
2019-01-10T09:55:28.439Z,4.40
2019-01-10T09:57:57.700Z,4.50
2019-01-10T10:00:28.359Z,3.80
2019-01-10T10:02:57.689Z,4.00
2019-01-10T10:05:26.880Z,4.00
2019-01-10T10:07:56.456Z,3.90
2019-01-10T10:10:25.592Z,4.00
2019-01-10T10:12:55.211Z,4.10
2019-01-10T10:15:25.477Z,4.20
2019-01-10T10:17:54.766Z,4.50
2019-01-10T10:20:24.555Z,4.50
2019-01-10T10:22:53.885Z,4.50
2019-01-10T10:25:23.205Z,4.30
2019-01-10T10:27:52.347Z,4.60
2019-01-10T10:30:21.900Z,4.40
2019-01-10T10:32:50.743Z,4.40
2019-01-10T10:35:21.350Z,4.30
2019-01-10T10:37:50.269Z,4.60
2019-01-10T10:40:20.583Z,4.60
2019-01-10T10:42:50.639Z,4.10
2019-01-10T10:45:21.113Z,4.20
2019-01-10T10:47:50.347Z,4.20
2019-01-10T10:50:27.438Z,4.30
2019-01-10T10:52:56.796Z,4.40
2019-01-10T10:55:26.097Z,4.30
2019-01-10T10:57:55.734Z,4.40
2019-01-10T11:00:27.028Z,4.50
2019-01-10T11:02:56.363Z,4.60
2019-01-10T11:05:25.878Z,4.50
2019-01-10T11:07:55.175Z,4.40
2019-01-10T11:10:24.799Z,4.40
2019-01-10T11:12:54.281Z,4.40
2019-01-10T11:15:23.380Z,4.50
2019-01-10T11:17:52.662Z,4.50
2019-01-10T11:20:22.848Z,4.60
2019-01-10T11:22:52.024Z,4.70
2019-01-10T11:25:23.500Z,4.50
2019-01-10T11:27:53.121Z,4.50
2019-01-10T11:30:22.327Z,4.40
2019-01-10T11:32:53.701Z,4.40
2019-01-10T11:35:23.315Z,4.40
2019-01-10T11:37:53.568Z,4.50
2019-01-10T11:40:22.843Z,4.70
2019-01-10T11:42:52.813Z,5.10
2019-01-10T11:45:23.020Z,5.00
2019-01-10T11:47:52.190Z,5.20
2019-01-10T11:50:21.714Z,5.20
2019-01-10T11:52:51.116Z,5.00
2019-01-10T11:55:20.347Z,4.90
2019-01-10T11:57:50.382Z,5.00
2019-01-10T12:00:25.110Z,4.70
2019-01-10T12:02:55.277Z,4.70
2019-01-10T12:05:24.719Z,4.80
2019-01-10T12:07:53.816Z,4.80
2019-01-10T12:10:23.487Z,4.80
2019-01-10T12:12:55.011Z,4.80
2019-01-10T12:15:24.286Z,4.60
2019-01-10T12:17:53.864Z,4.40
2019-01-10T12:20:23.062Z,4.30
2019-01-10T12:22:52.323Z,4.50
2019-01-10T12:25:21.752Z,4.60
2019-01-10T12:27:50.967Z,4.40
2019-01-10T12:30:24.608Z,4.50
2019-01-10T12:32:55.378Z,4.60
2019-01-10T12:35:24.533Z,4.20
2019-01-10T12:37:53.608Z,4.10
2019-01-10T12:40:23.690Z,4.00
2019-01-10T12:42:52.900Z,3.90
2019-01-10T12:45:21.976Z,3.90
2019-01-10T12:47:51.173Z,4.00
2019-01-10T12:50:22.825Z,4.00
2019-01-10T12:52:51.940Z,3.80
2019-01-10T12:55:21.355Z,3.80
2019-01-10T12:57:50.373Z,3.80
2019-01-10T13:00:21.822Z,3.90
2019-01-10T13:02:52.028Z,4.00
2019-01-10T13:05:21.292Z,3.90
2019-01-10T13:07:50.384Z,3.90
2019-01-10T13:10:26.587Z,3.90
2019-01-10T13:12:55.839Z,3.50
2019-01-10T13:15:26.051Z,3.50
2019-01-10T13:17:55.670Z,3.30
2019-01-10T13:20:25.188Z,3.20
2019-01-10T13:22:54.299Z,3.10
2019-01-10T13:25:23.944Z,3.10
2019-01-10T13:27:53.032Z,3.30
2019-01-10T13:30:24.178Z,3.40
2019-01-10T13:32:54.152Z,3.40
2019-01-10T13:35:23.343Z,3.40
2019-01-10T13:37:52.608Z,3.30
2019-01-10T13:40:22.211Z,3.30
2019-01-10T13:42:52.354Z,3.20
2019-01-10T13:45:21.979Z,3.40
2019-01-10T13:47:52.046Z,3.50
2019-01-10T13:50:23.735Z,3.30
2019-01-10T13:52:52.789Z,3.20
2019-01-10T13:55:22.383Z,3.20
2019-01-10T13:57:51.580Z,3.20
2019-01-10T14:00:23.578Z,3.20
2019-01-10T14:02:53.582Z,3.20
2019-01-10T14:05:22.764Z,3.20
2019-01-10T14:07:51.985Z,3.30
2019-01-10T14:10:21.747Z,3.40
2019-01-10T14:12:51.078Z,3.40
2019-01-10T14:15:23.164Z,3.40
2019-01-10T14:17:53.011Z,3.30
2019-01-10T14:20:24.752Z,3.30
2019-01-10T14:22:53.875Z,3.30
2019-01-10T14:25:23.425Z,3.20
2019-01-10T14:27:59.327Z,3.20
2019-01-10T14:30:29.558Z,3.10
2019-01-10T14:33:01.926Z,3.10
2019-01-10T14:35:31.099Z,3.20
2019-01-10T14:38:00.583Z,3.20
2019-01-10T14:40:29.974Z,3.10
2019-01-10T14:42:58.976Z,3.00
2019-01-10T14:45:29.395Z,2.90
2019-01-10T14:48:01.770Z,2.70
2019-01-10T14:50:29.459Z,2.70
2019-01-10T14:52:58.938Z,2.80
2019-01-10T14:55:27.801Z,2.80
2019-01-10T14:57:57.425Z,2.90
2019-01-10T15:00:26.700Z,2.90
2019-01-10T15:02:55.822Z,3.00
2019-01-10T15:05:25.030Z,2.80
2019-01-10T15:07:54.556Z,2.80
2019-01-10T15:10:23.908Z,2.70
2019-01-10T15:12:53.122Z,2.80
2019-01-10T15:15:23.587Z,2.70
2019-01-10T15:17:52.745Z,2.80
2019-01-10T15:20:24.599Z,2.80
2019-01-10T15:22:53.963Z,2.70
2019-01-10T15:25:23.208Z,2.70
2019-01-10T15:27:52.816Z,2.70
2019-01-10T15:30:24.682Z,2.70
2019-01-10T15:32:53.887Z,2.70
2019-01-10T15:35:23.368Z,2.70
2019-01-10T15:37:54.611Z,2.70
2019-01-10T15:40:27.810Z,2.70
2019-01-10T15:42:57.817Z,2.50
2019-01-10T15:45:27.254Z,2.60
2019-01-10T15:47:57.259Z,2.60
2019-01-10T15:50:26.528Z,2.60
2019-01-10T15:52:56.551Z,2.70
2019-01-10T15:55:25.813Z,2.60
2019-01-10T15:57:54.988Z,2.60
2019-01-10T16:00:25.678Z,2.70
2019-01-10T16:02:54.988Z,2.50
2019-01-10T16:05:24.196Z,2.40
2019-01-10T16:07:53.855Z,2.40
2019-01-10T16:10:23.016Z,2.40
2019-01-10T16:12:52.348Z,2.60
2019-01-10T16:15:23.731Z,2.60
2019-01-10T16:17:53.012Z,2.70
2019-01-10T16:20:22.360Z,2.70
2019-01-10T16:22:51.795Z,2.60
2019-01-10T16:25:21.451Z,2.60
2019-01-10T16:27:50.529Z,2.70
2019-01-10T16:30:25.073Z,2.60
2019-01-10T16:32:55.354Z,2.70
2019-01-10T16:35:24.667Z,2.70
2019-01-10T16:37:54.618Z,2.70
2019-01-10T16:40:23.829Z,2.70
2019-01-10T16:42:52.868Z,2.70
2019-01-10T16:45:27.248Z,2.70
2019-01-10T16:47:56.218Z,2.70
2019-01-10T16:50:26.395Z,2.70
2019-01-10T16:52:55.673Z,2.60
2019-01-10T16:55:24.973Z,2.70
2019-01-10T16:57:54.746Z,2.50
2019-01-10T17:00:26.973Z,2.60
2019-01-10T17:02:59.168Z,2.60
2019-01-10T17:05:30.885Z,2.60
2019-01-10T17:08:00.903Z,2.60
2019-01-10T17:10:30.045Z,2.60
2019-01-10T17:12:59.114Z,2.50
2019-01-10T17:15:28.393Z,2.60
2019-01-10T17:17:57.585Z,2.50
2019-01-10T17:20:27.290Z,2.50
2019-01-10T17:22:56.507Z,2.50
2019-01-10T17:25:28.405Z,2.60
2019-01-10T17:27:57.478Z,2.60
2019-01-10T17:30:28.813Z,2.60
2019-01-10T17:32:58.181Z,2.60
2019-01-10T17:35:29.532Z,2.60
2019-01-10T17:37:59.203Z,2.60
2019-01-10T17:40:28.520Z,2.60
2019-01-10T17:42:58.011Z,2.60
2019-01-10T17:45:30.112Z,2.50
2019-01-10T17:47:59.912Z,2.50
2019-01-10T17:50:29.792Z,2.50
2019-01-10T17:52:59.856Z,2.40
2019-01-10T17:55:29.571Z,2.50
2019-01-10T17:57:59.343Z,2.50
2019-01-10T18:00:30.556Z,2.40
2019-01-10T18:03:00.213Z,2.40
2019-01-10T18:05:32.375Z,2.40
2019-01-10T18:08:02.703Z,2.30
2019-01-10T18:10:32.074Z,2.40
2019-01-10T18:13:01.049Z,2.30
2019-01-10T18:15:30.827Z,2.20
2019-01-10T18:18:00.821Z,2.20
2019-01-10T18:20:36.129Z,2.30
2019-01-10T18:23:05.666Z,2.20
2019-01-10T18:25:34.998Z,2.10
2019-01-10T18:28:04.715Z,2.20
2019-01-10T18:30:34.245Z,2.00
2019-01-10T18:33:03.707Z,2.00
2019-01-10T18:35:35.083Z,2.10
2019-01-10T18:38:04.910Z,2.20
2019-01-10T18:40:34.506Z,2.10
2019-01-10T18:43:04.267Z,2.10
2019-01-10T18:45:34.297Z,2.20
2019-01-10T18:48:05.287Z,2.20
2019-01-10T18:50:35.166Z,2.30
2019-01-10T18:53:04.710Z,2.30
2019-01-10T18:55:35.750Z,2.20
2019-01-10T18:58:05.981Z,2.30
2019-01-10T19:00:35.534Z,2.20
2019-01-10T19:03:05.615Z,2.20
2019-01-10T19:05:36.557Z,2.30
2019-01-10T19:08:06.452Z,2.30
2019-01-10T19:10:36.154Z,2.20
2019-01-10T19:13:07.938Z,2.10
2019-01-10T19:15:37.481Z,2.10
2019-01-10T19:18:07.128Z,2.00
2019-01-10T19:20:37.672Z,1.90
2019-01-10T19:23:09.502Z,1.80
2019-01-10T19:25:42.069Z,1.80
2019-01-10T19:28:13.985Z,1.90
2019-01-10T19:30:49.196Z,1.80
2019-01-10T19:33:24.361Z,1.90
2019-01-10T19:35:55.299Z,1.90
2019-01-10T19:38:26.637Z,1.80
2019-01-10T19:40:57.530Z,1.80
2019-01-10T19:43:28.139Z,1.70
2019-01-10T19:45:58.680Z,1.70
2019-01-10T19:48:29.282Z,1.80
2019-01-10T19:50:59.529Z,1.80
2019-01-10T19:53:30.684Z,1.80
2019-01-10T19:56:00.755Z,1.80
2019-01-10T19:58:31.553Z,1.70
2019-01-10T20:01:01.429Z,1.60
2019-01-10T20:03:31.804Z,1.70
2019-01-10T20:06:01.962Z,1.80
2019-01-10T20:08:31.655Z,1.80
2019-01-10T20:11:02.438Z,1.70
2019-01-10T20:13:32.949Z,1.60
2019-01-10T20:16:02.569Z,1.70
2019-01-10T20:18:35.517Z,1.70
2019-01-10T20:21:07.004Z,1.60
2019-01-10T20:23:37.453Z,1.80
2019-01-10T20:26:08.062Z,1.70
2019-01-10T20:28:37.810Z,1.70
2019-01-10T20:31:07.740Z,1.80
2019-01-10T20:33:38.474Z,1.80
2019-01-10T20:36:08.062Z,1.80
2019-01-10T20:38:37.304Z,1.70
2019-01-10T20:41:07.616Z,1.70
2019-01-10T20:43:37.878Z,1.70
2019-01-10T20:46:07.793Z,1.60
2019-01-10T20:48:37.744Z,1.60
2019-01-10T20:51:07.711Z,1.60
2019-01-10T20:53:38.355Z,1.50
2019-01-10T20:56:08.253Z,1.50
2019-01-10T20:58:40.742Z,1.40
2019-01-10T21:01:11.386Z,1.60
2019-01-10T21:03:40.943Z,1.50
2019-01-10T21:06:11.758Z,1.50
2019-01-10T21:08:41.061Z,1.50
2019-01-10T21:11:11.733Z,1.60
2019-01-10T21:13:41.752Z,1.70
2019-01-10T21:16:11.235Z,1.70
2019-01-10T21:18:41.109Z,1.70
2019-01-10T21:21:11.767Z,1.70
2019-01-10T21:23:41.353Z,1.80
2019-01-10T21:26:11.455Z,1.80
2019-01-10T21:28:40.970Z,1.70
2019-01-10T21:31:10.326Z,1.80
2019-01-10T21:33:40.022Z,1.80
2019-01-10T21:36:09.231Z,1.70
2019-01-10T21:38:38.773Z,1.60
2019-01-10T21:41:08.718Z,1.70
2019-01-10T21:43:39.769Z,1.70
2019-01-10T21:46:09.877Z,1.70
2019-01-10T21:48:40.403Z,1.70
2019-01-10T21:51:09.893Z,1.80
2019-01-10T21:53:40.242Z,1.70
2019-01-10T21:56:10.652Z,1.70
2019-01-10T21:58:41.311Z,1.70
2019-01-10T22:01:11.202Z,1.70
2019-01-10T22:03:42.363Z,1.60
2019-01-10T22:06:12.085Z,1.60
2019-01-10T22:08:41.800Z,1.60
2019-01-10T22:11:13.028Z,1.60
2019-01-10T22:13:42.775Z,1.70
2019-01-10T22:16:13.955Z,1.70
2019-01-10T22:18:43.851Z,1.70
2019-01-10T22:21:13.572Z,1.70
2019-01-10T22:23:42.913Z,1.70
2019-01-10T22:26:13.669Z,1.60
2019-01-10T22:28:43.126Z,1.80
2019-01-10T22:31:12.532Z,1.80
2019-01-10T22:33:42.260Z,1.80
2019-01-10T22:36:12.066Z,1.80
2019-01-10T22:38:41.246Z,2.00
2019-01-10T22:41:11.173Z,1.90
2019-01-10T22:43:40.611Z,1.80
2019-01-10T22:46:10.676Z,1.80
2019-01-10T22:48:40.159Z,1.80
2019-01-10T22:51:09.125Z,1.80
2019-01-10T22:53:38.562Z,1.90
2019-01-10T22:56:09.214Z,1.90
2019-01-10T22:58:38.574Z,1.90
2019-01-10T23:01:11.248Z,1.90
2019-01-10T23:03:41.133Z,1.80
2019-01-10T23:06:11.396Z,1.90
2019-01-10T23:08:43.441Z,1.90
2019-01-10T23:11:17.815Z,2.00
2019-01-10T23:13:51.197Z,1.90
2019-01-10T23:16:21.870Z,2.00
2019-01-10T23:18:54.211Z,2.10
2019-01-10T23:21:21.730Z,2.10
2019-01-10T23:23:55.982Z,2.00
2019-01-10T23:26:24.991Z,2.10
2019-01-10T23:28:54.313Z,2.00
2019-01-10T23:31:23.810Z,2.00
2019-01-10T23:33:53.241Z,2.10
2019-01-10T23:36:23.014Z,2.10
2019-01-10T23:39:14.897Z,2.20
2019-01-10T23:41:44.299Z,2.20
2019-01-10T23:44:13.758Z,2.10
2019-01-10T23:46:43.616Z,2.00
2019-01-10T23:49:13.056Z,2.10
2019-01-10T23:51:42.534Z,2.20
2019-01-10T23:54:12.343Z,2.20
2019-01-10T23:56:41.752Z,2.10
2019-01-10T23:59:11.197Z,2.30
